Federal Leda — V7FL3 — position and weather

sailwx.info

Track history (hours):
 
Tides and Currents Weather Stations Pressure Air Temp Water Temp Dewpoint Dewpoint Depression Visibility Wind Speed Wind Dir Waves Ship Positions

Federal Leda

Last reported at 2018-Feb-18 06:27 UTC. Time now 2018-Feb-18 07:18 UTC.
Position N 26°06' W 079°25'.

Length 200 m; draft 7.7 m.

Type: Cargo ship. MMSI: 538005611.

Date/timePositionNaut miles runAvg speedWind from/ knotsBaromVisibWave heightAir tempDewpointWater temp
2018-Feb-18 06:27N 26°06' W 079°25'511.1
2018-Feb-18 06:00N 26°10' W 079°24'711.6
2018-Feb-18 05:27N 26°17' W 079°22'33810.6
2018-Feb-16 21:41N 31°49' W 080°34'2 9.9
2018-Feb-16 21:29N 31°50' W 080°35'5 9.8
2018-Feb-16 21:00N 31°54' W 080°39'4 8.9
2018-Feb-16 20:30N 31°58' W 080°41'0 0.8
2018-Feb-16 19:58N 31°58' W 080°41'1 2.2
2018-Feb-16 19:30N 31°58' W 080°42'4 7.7
2018-Feb-16 19:00N 31°59' W 080°46'611.2
2018-Feb-16 18:30N 32°02' W 080°52'511.0
2018-Feb-16 18:00N 32°04' W 080°58'4 8.8
2018-Feb-16 17:30N 32°05' W 081°03'1 0.7
2018-Feb-16 16:48N 32°05' W 081°04'0 0.0
2018-Feb-16 16:24N 32°05' W 081°04'0 0.0
2018-Feb-16 15:42N 32°05' W 081°04'0 0.0
2018-Feb-16 15:24N 32°05' W 081°04'0 0.0
2018-Feb-16 15:00N 32°05' W 081°04'0 0.0
2018-Feb-16 14:30N 32°05' W 081°04'0 0.0
2018-Feb-16 14:00N 32°05' W 081°04'0 0.0
2018-Feb-16 13:30N 32°05' W 081°04'0 0.0
2018-Feb-16 13:00N 32°05' W 081°04'0 0.0
2018-Feb-16 12:30N 32°05' W 081°04'0 0.0
2018-Feb-16 11:30N 32°05' W 081°04'0 0.0
2018-Feb-16 10:54N 32°05' W 081°04'0 0.0
2018-Feb-16 10:30N 32°05' W 081°04'0 0.0
2018-Feb-16 09:54N 32°05' W 081°04'0 0.0
2018-Feb-16 09:30N 32°05' W 081°04'0 0.0
2018-Feb-16 09:00N 32°05' W 081°04'0 0.0
2018-Feb-16 08:29N 32°05' W 081°04'0 0.0
2018-Feb-16 07:59N 32°05' W 081°04'0 0.0
2018-Feb-16 07:17N 32°05' W 081°04'0 0.0
2018-Feb-16 06:59N 32°05' W 081°04'0 0.0
2018-Feb-16 06:17N 32°05' W 081°04'0 0.0
2018-Feb-16 05:59N 32°05' W 081°04'0 0.0
2018-Feb-16 05:29N 32°05' W 081°04'0 0.0
2018-Feb-16 04:47N 32°05' W 081°04'0 0.0
2018-Feb-16 04:23N 32°05' W 081°04'0 0.0
2018-Feb-16 03:53N 32°05' W 081°04'0 0.0
2018-Feb-16 03:23N 32°05' W 081°04'0 0.0
2018-Feb-16 02:53N 32°05' W 081°04'0 0.0
2018-Feb-16 02:29N 32°05' W 081°04'0 0.0
2018-Feb-16 01:59N 32°05' W 081°04'0 0.0
2018-Feb-16 01:29N 32°05' W 081°04'0 0.0
2018-Feb-16 00:59N 32°05' W 081°04'0 0.0
2018-Feb-16 00:29N 32°05' W 081°04'0 0.0
2018-Feb-15 23:59N 32°05' W 081°04'0 0.0
2018-Feb-15 23:17N 32°05' W 081°04'0 0.0
2018-Feb-15 22:59N 32°05' W 081°04'0 0.0
2018-Feb-15 22:29N 32°05' W 081°04'0 0.0
2018-Feb-15 21:59N 32°05' W 081°04'0 0.0
2018-Feb-15 21:29N 32°05' W 081°04'0 0.0
2018-Feb-15 20:47N 32°05' W 081°04'0 0.0
2018-Feb-15 20:29N 32°05' W 081°04'0 0.0
2018-Feb-15 19:59N 32°05' W 081°04'0 0.0
2018-Feb-15 19:29N 32°05' W 081°04'0 0.0
2018-Feb-15 18:59N 32°05' W 081°04'0 0.0
2018-Feb-15 18:29N 32°05' W 081°04'0 0.0
2018-Feb-15 17:59N 32°05' W 081°04'0 0.0
2018-Feb-15 17:17N 32°05' W 081°04'0 0.0
2018-Feb-15 16:59N 32°05' W 081°04'0 0.0
2018-Feb-15 16:29N 32°05' W 081°04'0 0.0
2018-Feb-15 15:59N 32°05' W 081°04'0 0.0
2018-Feb-15 15:29N 32°05' W 081°04'0 0.0
2018-Feb-15 14:59N 32°05' W 081°04'0 0.0
2018-Feb-15 14:29N 32°05' W 081°04'0 0.0
2018-Feb-15 13:59N 32°05' W 081°04'0 0.0
2018-Feb-15 13:29N 32°05' W 081°04'0 0.0
2018-Feb-15 12:59N 32°05' W 081°04'0 0.0
2018-Feb-15 12:23N 32°05' W 081°04'0 0.0
2018-Feb-15 11:59N 32°05' W 081°04'0 0.0
2018-Feb-15 11:29N 32°05' W 081°04'0 0.0
2018-Feb-15 10:59N 32°05' W 081°04'0 0.0
2018-Feb-15 10:29N 32°05' W 081°04'0 0.0
2018-Feb-15 09:59N 32°05' W 081°04'0 0.0
2018-Feb-15 09:29N 32°05' W 081°04'0 0.0
2018-Feb-15 08:53N 32°05' W 081°04'0 0.0
2018-Feb-15 08:23N 32°05' W 081°04'0 0.0
2018-Feb-15 07:53N 32°05' W 081°04'0 0.0
2018-Feb-15 07:29N 32°05' W 081°04'0 0.0
2018-Feb-15 06:59N 32°05' W 081°04'0 0.0
2018-Feb-15 06:17N 32°05' W 081°04'0 0.0
2018-Feb-15 05:59N 32°05' W 081°04'0 0.0
2018-Feb-15 05:17N 32°05' W 081°04'0 0.0
2018-Feb-15 04:59N 32°05' W 081°04'0 0.0
2018-Feb-15 04:29N 32°05' W 081°04'0 0.0
2018-Feb-15 03:53N 32°05' W 081°04'0 0.0
2018-Feb-15 03:29N 32°05' W 081°04'0 0.0
2018-Feb-15 02:59N 32°05' W 081°04'0 0.0
2018-Feb-15 02:23N 32°05' W 081°04'0 0.0
2018-Feb-15 01:59N 32°05' W 081°04'0 0.0
2018-Feb-15 01:29N 32°05' W 081°04'0 0.0
2018-Feb-15 00:59N 32°05' W 081°04'0 0.0
2018-Feb-15 00:29N 32°05' W 081°04'0 0.0
2018-Feb-14 23:59N 32°05' W 081°04'0 0.0
2018-Feb-14 23:29N 32°05' W 081°04'0 0.0
2018-Feb-14 22:47N 32°05' W 081°04'0 0.0
2018-Feb-14 22:28N 32°05' W 081°04'0 0.0
2018-Feb-14 21:58N 32°05' W 081°04'0 0.0
2018-Feb-14 21:28N 32°05' W 081°04'0 0.0
2018-Feb-14 20:58N 32°05' W 081°04'0 0.0
2018-Feb-14 20:28N 32°05' W 081°04'0 0.0
2018-Feb-14 19:58N 32°05' W 081°04'0 0.0
2018-Feb-14 19:22N 32°05' W 081°04'0 0.0
2018-Feb-14 18:58N 32°05' W 081°04'0 0.0
2018-Feb-14 18:28N 32°05' W 081°04'0 0.0
2018-Feb-14 17:58N 32°05' W 081°04'0 0.0
2018-Feb-14 17:28N 32°05' W 081°04'0 0.0
2018-Feb-14 16:58N 32°05' W 081°04'0 0.0
2018-Feb-14 16:28N 32°05' W 081°04'0 0.0
2018-Feb-14 15:58N 32°05' W 081°04'0 0.0
2018-Feb-14 15:28N 32°05' W 081°04'0 0.0
2018-Feb-14 14:58N 32°05' W 081°04'0 0.0
2018-Feb-14 14:10N 32°05' W 081°04'0 0.0
2018-Feb-14 13:58N 32°05' W 081°04'0 0.0
2018-Feb-14 13:28N 32°05' W 081°04'0 0.0
2018-Feb-14 12:58N 32°05' W 081°04'0 0.0
2018-Feb-14 12:28N 32°05' W 081°04'0 0.0
2018-Feb-14 11:58N 32°05' W 081°04'0 0.0
2018-Feb-14 11:28N 32°05' W 081°04'0 0.0
2018-Feb-14 10:58N 32°05' W 081°04'0 0.0
2018-Feb-14 10:28N 32°05' W 081°04'0 0.0
2018-Feb-14 09:58N 32°05' W 081°04'0 0.0
2018-Feb-14 09:28N 32°05' W 081°04'0 0.0
2018-Feb-14 08:58N 32°05' W 081°04'0 0.0
2018-Feb-14 08:28N 32°05' W 081°04'0 0.0
2018-Feb-14 07:58N 32°05' W 081°04'0 0.0
2018-Feb-14 07:28N 32°05' W 081°04'0 0.0
2018-Feb-14 06:58N 32°05' W 081°04'0 0.0
2018-Feb-14 06:22N 32°05' W 081°04'0 0.0
2018-Feb-14 05:58N 32°05' W 081°04'0 0.0
2018-Feb-14 05:28N 32°05' W 081°04'0 0.0
2018-Feb-14 04:58N 32°05' W 081°04'0 0.0
2018-Feb-14 04:28N 32°05' W 081°04'0 0.0
2018-Feb-14 03:52N 32°05' W 081°04'0 0.0
2018-Feb-14 03:22N 32°05' W 081°04'0 0.0
2018-Feb-14 02:52N 32°05' W 081°04'0 0.0
2018-Feb-14 02:28N 32°05' W 081°04'0 0.0
2018-Feb-14 01:58N 32°05' W 081°04'0 0.0
2018-Feb-14 01:22N 32°05' W 081°04'0 0.0
2018-Feb-14 00:58N 32°05' W 081°04'0 0.0
2018-Feb-14 00:28N 32°05' W 081°04'0 0.0
2018-Feb-13 23:52N 32°05' W 081°04'0 0.0
2018-Feb-13 23:28N 32°05' W 081°04'0 0.0
2018-Feb-13 22:58N 32°05' W 081°04'0 0.0
2018-Feb-13 22:28N 32°05' W 081°04'0 0.0
2018-Feb-13 21:58N 32°05' W 081°04'0 0.0
2018-Feb-13 21:22N 32°05' W 081°04'0 0.0
2018-Feb-13 20:46N 32°05' W 081°04'0 0.0
2018-Feb-13 20:28N 32°05' W 081°04'0 0.0
2018-Feb-13 19:58N 32°05' W 081°04'0 0.0
2018-Feb-13 19:22N 32°05' W 081°04'0 0.0
2018-Feb-13 18:58N 32°05' W 081°04'0 0.0
2018-Feb-13 18:28N 32°05' W 081°04'0 0.0
2018-Feb-13 17:58N 32°05' W 081°04'0 0.0
2018-Feb-13 17:28N 32°05' W 081°04'0 0.0
2018-Feb-13 16:58N 32°05' W 081°04'0 0.0
2018-Feb-13 16:28N 32°05' W 081°04'0 0.0
2018-Feb-13 15:58N 32°05' W 081°04'0 0.0
2018-Feb-13 15:22N 32°05' W 081°04'0 0.0
2018-Feb-13 14:58N 32°05' W 081°04'0 0.0
2018-Feb-13 14:28N 32°05' W 081°04'0 0.0
2018-Feb-13 13:58N 32°05' W 081°04'0 0.0
2018-Feb-13 13:28N 32°05' W 081°04'0 0.0
2018-Feb-13 12:52N 32°05' W 081°04'0 0.0
2018-Feb-13 12:28N 32°05' W 081°04'0 0.0
2018-Feb-13 11:57N 32°05' W 081°04'0 0.0
2018-Feb-13 11:27N 32°05' W 081°04'0 0.0
2018-Feb-13 10:57N 32°05' W 081°04'0 0.0
2018-Feb-13 10:27N 32°05' W 081°04'0 0.0
2018-Feb-13 09:51N 32°05' W 081°04'0 0.0
2018-Feb-13 09:27N 32°05' W 081°04'0 0.0
2018-Feb-13 08:57N 32°05' W 081°04'0 0.0
2018-Feb-13 08:27N 32°05' W 081°04'0 0.0
2018-Feb-13 07:57N 32°05' W 081°04'0 0.0
2018-Feb-13 07:27N 32°05' W 081°04'0 0.0
2018-Feb-13 06:57N 32°05' W 081°04'0 0.0
2018-Feb-13 06:21N 32°05' W 081°04'0 0.0
2018-Feb-13 05:57N 32°05' W 081°04'0 0.0
2018-Feb-13 05:27N 32°05' W 081°04'0 0.0
2018-Feb-13 04:57N 32°05' W 081°04'0 0.0
2018-Feb-13 04:27N 32°05' W 081°04'0 0.0
2018-Feb-13 03:57N 32°05' W 081°04'0 0.0
2018-Feb-13 03:27N 32°05' W 081°04'0 0.0
2018-Feb-13 02:57N 32°05' W 081°04'0 0.0
2018-Feb-13 02:27N 32°05' W 081°04'0 0.0
2018-Feb-13 01:57N 32°05' W 081°04'0 0.0
2018-Feb-13 01:27N 32°05' W 081°04'0 0.0
2018-Feb-13 00:57N 32°05' W 081°04'0 0.0
2018-Feb-13 00:27N 32°05' W 081°04'0 0.0
2018-Feb-12 23:57N 32°05' W 081°04'0 0.0
2018-Feb-12 23:21N 32°05' W 081°04'0 0.0
2018-Feb-12 22:57N 32°05' W 081°04'0 0.0
2018-Feb-12 22:27N 32°05' W 081°04'0 0.0
2018-Feb-12 21:57N 32°05' W 081°04'0 0.0
2018-Feb-12 21:27N 32°05' W 081°04'0 0.0
2018-Feb-12 20:57N 32°05' W 081°04'0 0.0
2018-Feb-12 20:21N 32°05' W 081°04'0 0.0
2018-Feb-12 19:57N 32°05' W 081°04'0 0.0
2018-Feb-12 19:27N 32°05' W 081°04'0 0.0
2018-Feb-12 18:51N 32°05' W 081°04'0 0.0
2018-Feb-12 18:27N 32°05' W 081°04'0 0.0
2018-Feb-12 17:57N 32°05' W 081°04'0 0.0
2018-Feb-12 17:21N 32°05' W 081°04'0 0.0
2018-Feb-12 16:57N 32°05' W 081°04'0 0.0
2018-Feb-12 16:27N 32°05' W 081°04'0 0.0
2018-Feb-12 15:39N 32°05' W 081°04'0 0.0
2018-Feb-12 15:15N 32°05' W 081°04'0 0.0
2018-Feb-12 14:57N 32°05' W 081°04'0 0.0
2018-Feb-12 14:27N 32°05' W 081°04'0 0.0
2018-Feb-12 13:57N 32°05' W 081°04'0 0.0
2018-Feb-12 13:27N 32°05' W 081°04'0 0.0
2018-Feb-12 12:57N 32°05' W 081°04'0 0.0
2018-Feb-12 12:27N 32°05' W 081°04'0 0.0
2018-Feb-12 12:00N 32°05' W 081°04'1 1.2
2018-Feb-12 11:30N 32°05' W 081°03'3 5.9
2018-Feb-12 11:00N 32°06' W 081°00'4 8.8
2018-Feb-12 10:30N 32°03' W 080°56'611.9
2018-Feb-12 10:00N 32°02' W 080°49'612.2
2018-Feb-12 09:30N 31°58' W 080°44'5 9.9
2018-Feb-12 09:00N 31°56' W 080°38'4 7.7
2018-Feb-12 08:30N 31°54' W 080°35'1 1.5
2018-Feb-12 08:00N 31°54' W 080°34'0 0.1
2018-Feb-12 07:28N 31°54' W 080°34'0 0.0
2018-Feb-12 06:58N 31°54' W 080°34'0 0.0
2018-Feb-12 06:28N 31°54' W 080°34'0 0.0
2018-Feb-12 05:40N 31°54' W 080°34'0 0.0
2018-Feb-12 05:28N 31°54' W 080°34'0 0.1
2018-Feb-12 03:10N 31°54' W 080°34'0 0.0
2018-Feb-12 02:58N 31°54' W 080°34'0 0.0
2018-Feb-12 02:28N 31°54' W 080°34'0 0.0
2018-Feb-12 01:58N 31°54' W 080°34'0 0.0
2018-Feb-12 01:28N 31°54' W 080°34'0 0.1
2018-Feb-12 00:04N 31°54' W 080°34'0 0.1
2018-Feb-11 23:58N 31°54' W 080°34'0 0.1
2018-Feb-11 22:52N 31°54' W 080°34'0 0.0
2018-Feb-11 15:40N 31°54' W 080°34'0 0.3
2018-Feb-11 15:27N 31°54' W 080°34'0 0.2
2018-Feb-11 14:24N 31°54' W 080°34'0 0.1
2018-Feb-11 13:55N 31°54' W 080°34'0 0.2
2018-Feb-11 13:20N 31°54' W 080°34'13 2.0
2018-Feb-11 06:49N 31°57' W 080°18'  
Track history (hours):
 
Tides and Currents Weather Stations Pressure Air Temp Water Temp Dewpoint Dewpoint Depression Visibility Wind Speed Wind Dir Waves Ship Positions

Federal Leda

Last reported at 2018-Feb-18 06:27 UTC. Time now 2018-Feb-18 07:18 UTC.
Position N 26°06' W 079°25'.

Length 200 m; draft 7.7 m.

Type: Cargo ship. MMSI: 538005611.

Date/timePositionNaut miles runAvg speedWind from/ knotsBaromVisibWave heightAir tempDewpointWater temp
2018-Feb-18 06:27N 26°06' W 079°25'511.1
2018-Feb-18 06:00N 26°10' W 079°24'711.6
2018-Feb-18 05:27N 26°17' W 079°22'33810.6
2018-Feb-16 21:41N 31°49' W 080°34'2 9.9
2018-Feb-16 21:29N 31°50' W 080°35'5 9.8
2018-Feb-16 21:00N 31°54' W 080°39'4 8.9
2018-Feb-16 20:30N 31°58' W 080°41'0 0.8
2018-Feb-16 19:58N 31°58' W 080°41'1 2.2
2018-Feb-16 19:30N 31°58' W 080°42'4 7.7
2018-Feb-16 19:00N 31°59' W 080°46'611.2
2018-Feb-16 18:30N 32°02' W 080°52'511.0
2018-Feb-16 18:00N 32°04' W 080°58'4 8.8
2018-Feb-16 17:30N 32°05' W 081°03'1 0.7
2018-Feb-16 16:48N 32°05' W 081°04'0 0.0
2018-Feb-16 16:24N 32°05' W 081°04'0 0.0
2018-Feb-16 15:42N 32°05' W 081°04'0 0.0
2018-Feb-16 15:24N 32°05' W 081°04'0 0.0
2018-Feb-16 15:00N 32°05' W 081°04'0 0.0
2018-Feb-16 14:30N 32°05' W 081°04'0 0.0
2018-Feb-16 14:00N 32°05' W 081°04'0 0.0
2018-Feb-16 13:30N 32°05' W 081°04'0 0.0
2018-Feb-16 13:00N 32°05' W 081°04'0 0.0
2018-Feb-16 12:30N 32°05' W 081°04'0 0.0
2018-Feb-16 11:30N 32°05' W 081°04'0 0.0
2018-Feb-16 10:54N 32°05' W 081°04'0 0.0
2018-Feb-16 10:30N 32°05' W 081°04'0 0.0
2018-Feb-16 09:54N 32°05' W 081°04'0 0.0
2018-Feb-16 09:30N 32°05' W 081°04'0 0.0
2018-Feb-16 09:00N 32°05' W 081°04'0 0.0
2018-Feb-16 08:29N 32°05' W 081°04'0 0.0
2018-Feb-16 07:59N 32°05' W 081°04'0 0.0
2018-Feb-16 07:17N 32°05' W 081°04'0 0.0
2018-Feb-16 06:59N 32°05' W 081°04'0 0.0
2018-Feb-16 06:17N 32°05' W 081°04'0 0.0
2018-Feb-16 05:59N 32°05' W 081°04'0 0.0
2018-Feb-16 05:29N 32°05' W 081°04'0 0.0
2018-Feb-16 04:47N 32°05' W 081°04'0 0.0
2018-Feb-16 04:23N 32°05' W 081°04'0 0.0
2018-Feb-16 03:53N 32°05' W 081°04'0 0.0
2018-Feb-16 03:23N 32°05' W 081°04'0 0.0
2018-Feb-16 02:53N 32°05' W 081°04'0 0.0
2018-Feb-16 02:29N 32°05' W 081°04'0 0.0
2018-Feb-16 01:59N 32°05' W 081°04'0 0.0
2018-Feb-16 01:29N 32°05' W 081°04'0 0.0
2018-Feb-16 00:59N 32°05' W 081°04'0 0.0
2018-Feb-16 00:29N 32°05' W 081°04'0 0.0
2018-Feb-15 23:59N 32°05' W 081°04'0 0.0
2018-Feb-15 23:17N 32°05' W 081°04'0 0.0
2018-Feb-15 22:59N 32°05' W 081°04'0 0.0
2018-Feb-15 22:29N 32°05' W 081°04'0 0.0
2018-Feb-15 21:59N 32°05' W 081°04'0 0.0
2018-Feb-15 21:29N 32°05' W 081°04'0 0.0
2018-Feb-15 20:47N 32°05' W 081°04'0 0.0
2018-Feb-15 20:29N 32°05' W 081°04'0 0.0
2018-Feb-15 19:59N 32°05' W 081°04'0 0.0
2018-Feb-15 19:29N 32°05' W 081°04'0 0.0
2018-Feb-15 18:59N 32°05' W 081°04'0 0.0
2018-Feb-15 18:29N 32°05' W 081°04'0 0.0
2018-Feb-15 17:59N 32°05' W 081°04'0 0.0
2018-Feb-15 17:17N 32°05' W 081°04'0 0.0
2018-Feb-15 16:59N 32°05' W 081°04'0 0.0
2018-Feb-15 16:29N 32°05' W 081°04'0 0.0
2018-Feb-15 15:59N 32°05' W 081°04'0 0.0
2018-Feb-15 15:29N 32°05' W 081°04'0 0.0
2018-Feb-15 14:59N 32°05' W 081°04'0 0.0
2018-Feb-15 14:29N 32°05' W 081°04'0 0.0
2018-Feb-15 13:59N 32°05' W 081°04'0 0.0
2018-Feb-15 13:29N 32°05' W 081°04'0 0.0
2018-Feb-15 12:59N 32°05' W 081°04'0 0.0
2018-Feb-15 12:23N 32°05' W 081°04'0 0.0
2018-Feb-15 11:59N 32°05' W 081°04'0 0.0
2018-Feb-15 11:29N 32°05' W 081°04'0 0.0
2018-Feb-15 10:59N 32°05' W 081°04'0 0.0
2018-Feb-15 10:29N 32°05' W 081°04'0 0.0
2018-Feb-15 09:59N 32°05' W 081°04'0 0.0
2018-Feb-15 09:29N 32°05' W 081°04'0 0.0
2018-Feb-15 08:53N 32°05' W 081°04'0 0.0
2018-Feb-15 08:23N 32°05' W 081°04'0 0.0
2018-Feb-15 07:53N 32°05' W 081°04'0 0.0
2018-Feb-15 07:29N 32°05' W 081°04'0 0.0
2018-Feb-15 06:59N 32°05' W 081°04'0 0.0
2018-Feb-15 06:17N 32°05' W 081°04'0 0.0
2018-Feb-15 05:59N 32°05' W 081°04'0 0.0
2018-Feb-15 05:17N 32°05' W 081°04'0 0.0
2018-Feb-15 04:59N 32°05' W 081°04'0 0.0
2018-Feb-15 04:29N 32°05' W 081°04'0 0.0
2018-Feb-15 03:53N 32°05' W 081°04'0 0.0
2018-Feb-15 03:29N 32°05' W 081°04'0 0.0
2018-Feb-15 02:59N 32°05' W 081°04'0 0.0
2018-Feb-15 02:23N 32°05' W 081°04'0 0.0
2018-Feb-15 01:59N 32°05' W 081°04'0 0.0
2018-Feb-15 01:29N 32°05' W 081°04'0 0.0
2018-Feb-15 00:59N 32°05' W 081°04'0 0.0
2018-Feb-15 00:29N 32°05' W 081°04'0 0.0
2018-Feb-14 23:59N 32°05' W 081°04'0 0.0
2018-Feb-14 23:29N 32°05' W 081°04'0 0.0
2018-Feb-14 22:47N 32°05' W 081°04'0 0.0
2018-Feb-14 22:28N 32°05' W 081°04'0 0.0
2018-Feb-14 21:58N 32°05' W 081°04'0 0.0
2018-Feb-14 21:28N 32°05' W 081°04'0 0.0
2018-Feb-14 20:58N 32°05' W 081°04'0 0.0
2018-Feb-14 20:28N 32°05' W 081°04'0 0.0
2018-Feb-14 19:58N 32°05' W 081°04'0 0.0
2018-Feb-14 19:22N 32°05' W 081°04'0 0.0
2018-Feb-14 18:58N 32°05' W 081°04'0 0.0
2018-Feb-14 18:28N 32°05' W 081°04'0 0.0
2018-Feb-14 17:58N 32°05' W 081°04'0 0.0
2018-Feb-14 17:28N 32°05' W 081°04'0 0.0
2018-Feb-14 16:58N 32°05' W 081°04'0 0.0
2018-Feb-14 16:28N 32°05' W 081°04'0 0.0
2018-Feb-14 15:58N 32°05' W 081°04'0 0.0
2018-Feb-14 15:28N 32°05' W 081°04'0 0.0
2018-Feb-14 14:58N 32°05' W 081°04'0 0.0
2018-Feb-14 14:10N 32°05' W 081°04'0 0.0
2018-Feb-14 13:58N 32°05' W 081°04'0 0.0
2018-Feb-14 13:28N 32°05' W 081°04'0 0.0
2018-Feb-14 12:58N 32°05' W 081°04'0 0.0
2018-Feb-14 12:28N 32°05' W 081°04'0 0.0
2018-Feb-14 11:58N 32°05' W 081°04'0 0.0
2018-Feb-14 11:28N 32°05' W 081°04'0 0.0
2018-Feb-14 10:58N 32°05' W 081°04'0 0.0
2018-Feb-14 10:28N 32°05' W 081°04'0 0.0
2018-Feb-14 09:58N 32°05' W 081°04'0 0.0
2018-Feb-14 09:28N 32°05' W 081°04'0 0.0
2018-Feb-14 08:58N 32°05' W 081°04'0 0.0
2018-Feb-14 08:28N 32°05' W 081°04'0 0.0
2018-Feb-14 07:58N 32°05' W 081°04'0 0.0
2018-Feb-14 07:28N 32°05' W 081°04'0 0.0
2018-Feb-14 06:58N 32°05' W 081°04'0 0.0
2018-Feb-14 06:22N 32°05' W 081°04'0 0.0
2018-Feb-14 05:58N 32°05' W 081°04'0 0.0
2018-Feb-14 05:28N 32°05' W 081°04'0 0.0
2018-Feb-14 04:58N 32°05' W 081°04'0 0.0
2018-Feb-14 04:28N 32°05' W 081°04'0 0.0
2018-Feb-14 03:52N 32°05' W 081°04'0 0.0
2018-Feb-14 03:22N 32°05' W 081°04'0 0.0
2018-Feb-14 02:52N 32°05' W 081°04'0 0.0
2018-Feb-14 02:28N 32°05' W 081°04'0 0.0
2018-Feb-14 01:58N 32°05' W 081°04'0 0.0
2018-Feb-14 01:22N 32°05' W 081°04'0 0.0
2018-Feb-14 00:58N 32°05' W 081°04'0 0.0
2018-Feb-14 00:28N 32°05' W 081°04'0 0.0
2018-Feb-13 23:52N 32°05' W 081°04'0 0.0
2018-Feb-13 23:28N 32°05' W 081°04'0 0.0
2018-Feb-13 22:58N 32°05' W 081°04'0 0.0
2018-Feb-13 22:28N 32°05' W 081°04'0 0.0
2018-Feb-13 21:58N 32°05' W 081°04'0 0.0
2018-Feb-13 21:22N 32°05' W 081°04'0 0.0
2018-Feb-13 20:46N 32°05' W 081°04'0 0.0
2018-Feb-13 20:28N 32°05' W 081°04'0 0.0
2018-Feb-13 19:58N 32°05' W 081°04'0 0.0
2018-Feb-13 19:22N 32°05' W 081°04'0 0.0
2018-Feb-13 18:58N 32°05' W 081°04'0 0.0
2018-Feb-13 18:28N 32°05' W 081°04'0 0.0
2018-Feb-13 17:58N 32°05' W 081°04'0 0.0
2018-Feb-13 17:28N 32°05' W 081°04'0 0.0
2018-Feb-13 16:58N 32°05' W 081°04'0 0.0
2018-Feb-13 16:28N 32°05' W 081°04'0 0.0
2018-Feb-13 15:58N 32°05' W 081°04'0 0.0
2018-Feb-13 15:22N 32°05' W 081°04'0 0.0
2018-Feb-13 14:58N 32°05' W 081°04'0 0.0
2018-Feb-13 14:28N 32°05' W 081°04'0 0.0
2018-Feb-13 13:58N 32°05' W 081°04'0 0.0
2018-Feb-13 13:28N 32°05' W 081°04'0 0.0
2018-Feb-13 12:52N 32°05' W 081°04'0 0.0
2018-Feb-13 12:28N 32°05' W 081°04'0 0.0
2018-Feb-13 11:57N 32°05' W 081°04'0 0.0
2018-Feb-13 11:27N 32°05' W 081°04'0 0.0
2018-Feb-13 10:57N 32°05' W 081°04'0 0.0
2018-Feb-13 10:27N 32°05' W 081°04'0 0.0
2018-Feb-13 09:51N 32°05' W 081°04'0 0.0
2018-Feb-13 09:27N 32°05' W 081°04'0 0.0
2018-Feb-13 08:57N 32°05' W 081°04'0 0.0
2018-Feb-13 08:27N 32°05' W 081°04'0 0.0
2018-Feb-13 07:57N 32°05' W 081°04'0 0.0
2018-Feb-13 07:27N 32°05' W 081°04'0 0.0
2018-Feb-13 06:57N 32°05' W 081°04'0 0.0
2018-Feb-13 06:21N 32°05' W 081°04'0 0.0
2018-Feb-13 05:57N 32°05' W 081°04'0 0.0
2018-Feb-13 05:27N 32°05' W 081°04'0 0.0
2018-Feb-13 04:57N 32°05' W 081°04'0 0.0
2018-Feb-13 04:27N 32°05' W 081°04'0 0.0
2018-Feb-13 03:57N 32°05' W 081°04'0 0.0
2018-Feb-13 03:27N 32°05' W 081°04'0 0.0
2018-Feb-13 02:57N 32°05' W 081°04'0 0.0
2018-Feb-13 02:27N 32°05' W 081°04'0 0.0
2018-Feb-13 01:57N 32°05' W 081°04'0 0.0
2018-Feb-13 01:27N 32°05' W 081°04'0 0.0
2018-Feb-13 00:57N 32°05' W 081°04'0 0.0
2018-Feb-13 00:27N 32°05' W 081°04'0 0.0
2018-Feb-12 23:57N 32°05' W 081°04'0 0.0
2018-Feb-12 23:21N 32°05' W 081°04'0 0.0
2018-Feb-12 22:57N 32°05' W 081°04'0 0.0
2018-Feb-12 22:27N 32°05' W 081°04'0 0.0
2018-Feb-12 21:57N 32°05' W 081°04'0 0.0
2018-Feb-12 21:27N 32°05' W 081°04'0 0.0
2018-Feb-12 20:57N 32°05' W 081°04'0 0.0
2018-Feb-12 20:21N 32°05' W 081°04'0 0.0
2018-Feb-12 19:57N 32°05' W 081°04'0 0.0
2018-Feb-12 19:27N 32°05' W 081°04'0 0.0
2018-Feb-12 18:51N 32°05' W 081°04'0 0.0
2018-Feb-12 18:27N 32°05' W 081°04'0 0.0
2018-Feb-12 17:57N 32°05' W 081°04'0 0.0
2018-Feb-12 17:21N 32°05' W 081°04'0 0.0
2018-Feb-12 16:57N 32°05' W 081°04'0 0.0
2018-Feb-12 16:27N 32°05' W 081°04'0 0.0
2018-Feb-12 15:39N 32°05' W 081°04'0 0.0
2018-Feb-12 15:15N 32°05' W 081°04'0 0.0
2018-Feb-12 14:57N 32°05' W 081°04'0 0.0
2018-Feb-12 14:27N 32°05' W 081°04'0 0.0
2018-Feb-12 13:57N 32°05' W 081°04'0 0.0
2018-Feb-12 13:27N 32°05' W 081°04'0 0.0
2018-Feb-12 12:57N 32°05' W 081°04'0 0.0
2018-Feb-12 12:27N 32°05' W 081°04'0 0.0
2018-Feb-12 12:00N 32°05' W 081°04'1 1.2
2018-Feb-12 11:30N 32°05' W 081°03'3 5.9
2018-Feb-12 11:00N 32°06' W 081°00'4 8.8
2018-Feb-12 10:30N 32°03' W 080°56'611.9
2018-Feb-12 10:00N 32°02' W 080°49'612.2
2018-Feb-12 09:30N 31°58' W 080°44'5 9.9
2018-Feb-12 09:00N 31°56' W 080°38'4 7.7
2018-Feb-12 08:30N 31°54' W 080°35'1 1.5
2018-Feb-12 08:00N 31°54' W 080°34'0 0.1
2018-Feb-12 07:28N 31°54' W 080°34'0 0.0
2018-Feb-12 06:58N 31°54' W 080°34'0 0.0
2018-Feb-12 06:28N 31°54' W 080°34'0 0.0
2018-Feb-12 05:40N 31°54' W 080°34'0 0.0
2018-Feb-12 05:28N 31°54' W 080°34'0 0.1
2018-Feb-12 03:10N 31°54' W 080°34'0 0.0
2018-Feb-12 02:58N 31°54' W 080°34'0 0.0
2018-Feb-12 02:28N 31°54' W 080°34'0 0.0
2018-Feb-12 01:58N 31°54' W 080°34'0 0.0
2018-Feb-12 01:28N 31°54' W 080°34'0 0.1
2018-Feb-12 00:04N 31°54' W 080°34'0 0.1
2018-Feb-11 23:58N 31°54' W 080°34'0 0.1
2018-Feb-11 22:52N 31°54' W 080°34'0 0.0
2018-Feb-11 15:40N 31°54' W 080°34'0 0.3
2018-Feb-11 15:27N 31°54' W 080°34'0 0.2
2018-Feb-11 14:24N 31°54' W 080°34'0 0.1
2018-Feb-11 13:55N 31°54' W 080°34'0 0.2
2018-Feb-11 13:20N 31°54' W 080°34'13 2.0
2018-Feb-11 06:49N 31°57' W 080°18'  

Dump ship's entire track history